sensor_id;sensor_type;location;lat;lon;timestamp;temperature;humidity
40059;SHT31;25763;49.972;8.568;2023-04-24T00:01:14;12.06;79.15
40059;SHT31;25763;49.972;8.568;2023-04-24T00:03:40;11.99;79.50
40059;SHT31;25763;49.972;8.568;2023-04-24T00:06:06;12.04;79.65
40059;SHT31;25763;49.972;8.568;2023-04-24T00:08:36;11.98;80.03
40059;SHT31;25763;49.972;8.568;2023-04-24T00:11:01;11.91;80.41
40059;SHT31;25763;49.972;8.568;2023-04-24T00:13:27;11.91;80.50
40059;SHT31;25763;49.972;8.568;2023-04-24T00:15:54;11.90;80.61
40059;SHT31;25763;49.972;8.568;2023-04-24T00:18:20;11.94;80.60
40059;SHT31;25763;49.972;8.568;2023-04-24T00:20:45;11.90;80.67
40059;SHT31;25763;49.972;8.568;2023-04-24T00:23:11;11.97;80.50
40059;SHT31;25763;49.972;8.568;2023-04-24T00:25:37;11.88;80.71
40059;SHT31;25763;49.972;8.568;2023-04-24T00:28:02;11.86;80.66
40059;SHT31;25763;49.972;8.568;2023-04-24T00:30:28;11.90;80.39
40059;SHT31;25763;49.972;8.568;2023-04-24T00:32:53;11.88;80.36
40059;SHT31;25763;49.972;8.568;2023-04-24T00:35:19;11.91;80.30
40059;SHT31;25763;49.972;8.568;2023-04-24T00:37:45;11.84;80.36
40059;SHT31;25763;49.972;8.568;2023-04-24T00:40:11;11.86;80.25
40059;SHT31;25763;49.972;8.568;2023-04-24T00:42:36;11.88;79.99
40059;SHT31;25763;49.972;8.568;2023-04-24T00:45:02;11.86;80.17
40059;SHT31;25763;49.972;8.568;2023-04-24T00:47:28;11.80;80.12
40059;SHT31;25763;49.972;8.568;2023-04-24T00:49:54;11.76;80.16
40059;SHT31;25763;49.972;8.568;2023-04-24T00:52:20;11.73;80.16
40059;SHT31;25763;49.972;8.568;2023-04-24T00:54:45;11.65;80.38
40059;SHT31;25763;49.972;8.568;2023-04-24T00:57:12;11.66;80.28
40059;SHT31;25763;49.972;8.568;2023-04-24T00:59:38;11.66;80.23
40059;SHT31;25763;49.972;8.568;2023-04-24T01:02:04;11.65;80.41
40059;SHT31;25763;49.972;8.568;2023-04-24T01:04:30;11.66;80.27
40059;SHT31;25763;49.972;8.568;2023-04-24T01:06:56;11.71;80.09
40059;SHT31;25763;49.972;8.568;2023-04-24T01:09:23;11.73;80.07
40059;SHT31;25763;49.972;8.568;2023-04-24T01:11:49;11.71;80.11
40059;SHT31;25763;49.972;8.568;2023-04-24T01:14:15;11.70;79.99
40059;SHT31;25763;49.972;8.568;2023-04-24T01:16:40;11.74;79.92
40059;SHT31;25763;49.972;8.568;2023-04-24T01:19:07;11.67;80.06
40059;SHT31;25763;49.972;8.568;2023-04-24T01:21:35;11.58;80.52
40059;SHT31;25763;49.972;8.568;2023-04-24T01:24:02;11.55;80.65
40059;SHT31;25763;49.972;8.568;2023-04-24T01:26:27;11.52;80.75
40059;SHT31;25763;49.972;8.568;2023-04-24T01:28:53;11.52;80.78
40059;SHT31;25763;49.972;8.568;2023-04-24T01:31:18;11.46;81.05
40059;SHT31;25763;49.972;8.568;2023-04-24T01:33:44;11.48;80.90
40059;SHT31;25763;49.972;8.568;2023-04-24T01:36:11;11.46;80.82
40059;SHT31;25763;49.972;8.568;2023-04-24T01:38:37;11.48;80.86
40059;SHT31;25763;49.972;8.568;2023-04-24T01:41:02;11.48;80.93
40059;SHT31;25763;49.972;8.568;2023-04-24T01:43:28;11.45;81.01
40059;SHT31;25763;49.972;8.568;2023-04-24T01:45:53;11.48;81.02
40059;SHT31;25763;49.972;8.568;2023-04-24T01:48:19;11.51;80.99
40059;SHT31;25763;49.972;8.568;2023-04-24T01:50:44;11.51;81.10
40059;SHT31;25763;49.972;8.568;2023-04-24T01:53:10;11.52;80.80
40059;SHT31;25763;49.972;8.568;2023-04-24T01:55:36;11.53;80.89
40059;SHT31;25763;49.972;8.568;2023-04-24T01:58:01;11.53;80.82
40059;SHT31;25763;49.972;8.568;2023-04-24T02:00:27;11.53;80.82
40059;SHT31;25763;49.972;8.568;2023-04-24T02:02:52;11.55;80.99
40059;SHT31;25763;49.972;8.568;2023-04-24T02:05:19;11.56;80.76
40059;SHT31;25763;49.972;8.568;2023-04-24T02:07:45;11.61;80.75
40059;SHT31;25763;49.972;8.568;2023-04-24T02:10:10;11.62;80.53
40059;SHT31;25763;49.972;8.568;2023-04-24T02:12:36;11.61;80.58
40059;SHT31;25763;49.972;8.568;2023-04-24T02:15:02;11.63;80.84
40059;SHT31;25763;49.972;8.568;2023-04-24T02:17:28;11.56;80.95
40059;SHT31;25763;49.972;8.568;2023-04-24T02:19:53;11.51;81.00
40059;SHT31;25763;49.972;8.568;2023-04-24T02:22:18;11.48;80.95
40059;SHT31;25763;49.972;8.568;2023-04-24T02:24:44;11.51;80.85
40059;SHT31;25763;49.972;8.568;2023-04-24T02:27:09;11.48;80.80
40059;SHT31;25763;49.972;8.568;2023-04-24T02:29:36;11.45;80.62
40059;SHT31;25763;49.972;8.568;2023-04-24T02:32:01;11.51;80.42
40059;SHT31;25763;49.972;8.568;2023-04-24T02:34:27;11.55;80.20
40059;SHT31;25763;49.972;8.568;2023-04-24T02:36:52;11.49;80.10
40059;SHT31;25763;49.972;8.568;2023-04-24T02:39:19;11.48;80.06
40059;SHT31;25763;49.972;8.568;2023-04-24T02:41:44;11.44;80.22
40059;SHT31;25763;49.972;8.568;2023-04-24T02:44:10;11.41;80.41
40059;SHT31;25763;49.972;8.568;2023-04-24T02:46:35;11.38;80.27
40059;SHT31;25763;49.972;8.568;2023-04-24T02:49:01;11.41;80.28
40059;SHT31;25763;49.972;8.568;2023-04-24T02:51:26;11.41;80.05
40059;SHT31;25763;49.972;8.568;2023-04-24T02:53:52;11.45;80.06
40059;SHT31;25763;49.972;8.568;2023-04-24T02:56:17;11.46;80.04
40059;SHT31;25763;49.972;8.568;2023-04-24T02:58:43;11.49;79.97
40059;SHT31;25763;49.972;8.568;2023-04-24T03:01:08;11.51;79.78
40059;SHT31;25763;49.972;8.568;2023-04-24T03:03:35;11.52;79.94
40059;SHT31;25763;49.972;8.568;2023-04-24T03:06:01;11.56;80.02
40059;SHT31;25763;49.972;8.568;2023-04-24T03:08:26;11.52;80.24
40059;SHT31;25763;49.972;8.568;2023-04-24T03:10:52;11.49;80.48
40059;SHT31;25763;49.972;8.568;2023-04-24T03:13:17;11.56;80.58
40059;SHT31;25763;49.972;8.568;2023-04-24T03:15:42;11.51;81.04
40059;SHT31;25763;49.972;8.568;2023-04-24T03:18:08;11.49;81.44
40059;SHT31;25763;49.972;8.568;2023-04-24T03:20:33;11.44;81.94
40059;SHT31;25763;49.972;8.568;2023-04-24T03:22:59;11.39;82.40
40059;SHT31;25763;49.972;8.568;2023-04-24T03:25:24;11.46;82.17
40059;SHT31;25763;49.972;8.568;2023-04-24T03:27:50;11.36;82.74
40059;SHT31;25763;49.972;8.568;2023-04-24T03:30:15;11.29;83.06
40059;SHT31;25763;49.972;8.568;2023-04-24T03:32:40;11.32;83.14
40059;SHT31;25763;49.972;8.568;2023-04-24T03:35:07;11.25;83.30
40059;SHT31;25763;49.972;8.568;2023-04-24T03:37:33;11.25;83.30
40059;SHT31;25763;49.972;8.568;2023-04-24T03:39:59;11.31;83.02
40059;SHT31;25763;49.972;8.568;2023-04-24T03:42:24;11.25;83.21
40059;SHT31;25763;49.972;8.568;2023-04-24T03:44:50;11.20;83.29
40059;SHT31;25763;49.972;8.568;2023-04-24T03:47:15;11.22;83.06
40059;SHT31;25763;49.972;8.568;2023-04-24T03:49:40;11.17;82.69
40059;SHT31;25763;49.972;8.568;2023-04-24T03:52:06;11.17;82.72
40059;SHT31;25763;49.972;8.568;2023-04-24T03:54:31;11.12;82.15
40059;SHT31;25763;49.972;8.568;2023-04-24T03:56:56;11.10;82.19
40059;SHT31;25763;49.972;8.568;2023-04-24T03:59:22;11.12;82.11
40059;SHT31;25763;49.972;8.568;2023-04-24T04:01:47;11.15;82.08
40059;SHT31;25763;49.972;8.568;2023-04-24T04:04:13;11.11;81.77
40059;SHT31;25763;49.972;8.568;2023-04-24T04:06:38;11.11;81.28
40059;SHT31;25763;49.972;8.568;2023-04-24T04:09:03;11.06;80.97
40059;SHT31;25763;49.972;8.568;2023-04-24T04:11:29;11.03;81.21
40059;SHT31;25763;49.972;8.568;2023-04-24T04:13:55;11.04;81.09
40059;SHT31;25763;49.972;8.568;2023-04-24T04:16:22;11.04;80.97
40059;SHT31;25763;49.972;8.568;2023-04-24T04:18:47;10.96;80.24
40059;SHT31;25763;49.972;8.568;2023-04-24T04:21:13;10.96;80.33
40059;SHT31;25763;49.972;8.568;2023-04-24T04:23:38;10.89;79.50
40059;SHT31;25763;49.972;8.568;2023-04-24T04:26:05;10.79;78.72
40059;SHT31;25763;49.972;8.568;2023-04-24T04:28:30;10.76;78.05
40059;SHT31;25763;49.972;8.568;2023-04-24T04:30:57;10.76;78.19
40059;SHT31;25763;49.972;8.568;2023-04-24T04:33:24;10.67;76.81
40059;SHT31;25763;49.972;8.568;2023-04-24T04:35:50;10.67;77.04
40059;SHT31;25763;49.972;8.568;2023-04-24T04:38:17;10.65;77.06
40059;SHT31;25763;49.972;8.568;2023-04-24T04:40:43;10.65;76.95
40059;SHT31;25763;49.972;8.568;2023-04-24T04:43:08;10.57;76.55
40059;SHT31;25763;49.972;8.568;2023-04-24T04:45:35;10.54;76.75
40059;SHT31;25763;49.972;8.568;2023-04-24T04:48:01;10.57;76.89
40059;SHT31;25763;49.972;8.568;2023-04-24T04:50:27;10.59;76.61
40059;SHT31;25763;49.972;8.568;2023-04-24T04:52:52;10.58;76.77
40059;SHT31;25763;49.972;8.568;2023-04-24T04:55:18;10.67;76.82
40059;SHT31;25763;49.972;8.568;2023-04-24T04:57:45;10.69;77.30
40059;SHT31;25763;49.972;8.568;2023-04-24T05:00:11;10.68;77.04
40059;SHT31;25763;49.972;8.568;2023-04-24T05:02:37;10.69;76.81
40059;SHT31;25763;49.972;8.568;2023-04-24T05:05:03;10.68;75.66
40059;SHT31;25763;49.972;8.568;2023-04-24T05:07:28;10.59;75.32
40059;SHT31;25763;49.972;8.568;2023-04-24T05:09:54;10.75;75.74
40059;SHT31;25763;49.972;8.568;2023-04-24T05:12:19;10.79;75.52
40059;SHT31;25763;49.972;8.568;2023-04-24T05:14:44;10.75;74.76
40059;SHT31;25763;49.972;8.568;2023-04-24T05:17:10;10.72;75.07
40059;SHT31;25763;49.972;8.568;2023-04-24T05:19:35;10.82;75.01
40059;SHT31;25763;49.972;8.568;2023-04-24T05:22:03;10.71;73.22
40059;SHT31;25763;49.972;8.568;2023-04-24T05:24:30;10.85;73.61
40059;SHT31;25763;49.972;8.568;2023-04-24T05:26:56;11.03;74.02
40059;SHT31;25763;49.972;8.568;2023-04-24T05:29:22;10.85;72.13
40059;SHT31;25763;49.972;8.568;2023-04-24T05:31:47;10.85;71.89
40059;SHT31;25763;49.972;8.568;2023-04-24T05:34:12;11.07;71.91
40059;SHT31;25763;49.972;8.568;2023-04-24T05:36:39;11.29;71.75
40059;SHT31;25763;49.972;8.568;2023-04-24T05:39:04;11.38;71.76
40059;SHT31;25763;49.972;8.568;2023-04-24T05:41:30;11.18;72.32
40059;SHT31;25763;49.972;8.568;2023-04-24T05:43:55;11.22;73.09
40059;SHT31;25763;49.972;8.568;2023-04-24T05:46:21;11.29;73.08
40059;SHT31;25763;49.972;8.568;2023-04-24T05:48:46;11.51;72.65
40059;SHT31;25763;49.972;8.568;2023-04-24T05:51:12;11.76;72.09
40059;SHT31;25763;49.972;8.568;2023-04-24T05:53:37;12.04;71.39
40059;SHT31;25763;49.972;8.568;2023-04-24T05:56:03;11.67;68.57
40059;SHT31;25763;49.972;8.568;2023-04-24T05:58:28;11.62;69.51
40059;SHT31;25763;49.972;8.568;2023-04-24T06:00:53;11.59;68.90
40059;SHT31;25763;49.972;8.568;2023-04-24T06:03:20;11.36;69.28
40059;SHT31;25763;49.972;8.568;2023-04-24T06:05:45;11.32;70.16
40059;SHT31;25763;49.972;8.568;2023-04-24T06:08:11;11.22;70.39
40059;SHT31;25763;49.972;8.568;2023-04-24T06:10:36;11.35;70.62
40059;SHT31;25763;49.972;8.568;2023-04-24T06:13:02;11.42;70.80
40059;SHT31;25763;49.972;8.568;2023-04-24T06:15:29;11.44;71.53
40059;SHT31;25763;49.972;8.568;2023-04-24T06:17:56;11.34;72.29
40059;SHT31;25763;49.972;8.568;2023-04-24T06:20:21;11.14;73.20
40059;SHT31;25763;49.972;8.568;2023-04-24T06:22:46;11.20;73.22
40059;SHT31;25763;49.972;8.568;2023-04-24T06:25:12;11.27;72.82
40059;SHT31;25763;49.972;8.568;2023-04-24T06:27:37;11.66;72.53
40059;SHT31;25763;49.972;8.568;2023-04-24T06:30:03;11.87;71.94
40059;SHT31;25763;49.972;8.568;2023-04-24T06:32:28;11.86;71.56
40059;SHT31;25763;49.972;8.568;2023-04-24T06:34:54;11.74;71.90
40059;SHT31;25763;49.972;8.568;2023-04-24T06:37:22;11.69;71.56
40059;SHT31;25763;49.972;8.568;2023-04-24T06:39:48;11.62;72.18
40059;SHT31;25763;49.972;8.568;2023-04-24T06:42:13;11.42;72.34
40059;SHT31;25763;49.972;8.568;2023-04-24T06:44:39;11.51;72.85
40059;SHT31;25763;49.972;8.568;2023-04-24T06:47:08;11.55;72.20
40059;SHT31;25763;49.972;8.568;2023-04-24T06:49:35;11.67;72.28
40059;SHT31;25763;49.972;8.568;2023-04-24T06:52:00;11.66;72.01
40059;SHT31;25763;49.972;8.568;2023-04-24T06:54:26;11.67;72.03
40059;SHT31;25763;49.972;8.568;2023-04-24T06:56:51;11.81;71.77
40059;SHT31;25763;49.972;8.568;2023-04-24T06:59:17;11.73;71.09
40059;SHT31;25763;49.972;8.568;2023-04-24T07:01:42;11.87;71.29
40059;SHT31;25763;49.972;8.568;2023-04-24T07:04:08;11.88;70.52
40059;SHT31;25763;49.972;8.568;2023-04-24T07:06:33;12.01;70.49
40059;SHT31;25763;49.972;8.568;2023-04-24T07:09:00;11.94;69.93
40059;SHT31;25763;49.972;8.568;2023-04-24T07:11:27;11.90;69.56
40059;SHT31;25763;49.972;8.568;2023-04-24T07:13:54;11.77;69.23
40059;SHT31;25763;49.972;8.568;2023-04-24T07:16:20;11.87;69.02
40059;SHT31;25763;49.972;8.568;2023-04-24T07:18:45;11.86;69.39
40059;SHT31;25763;49.972;8.568;2023-04-24T07:21:11;11.88;69.43
40059;SHT31;25763;49.972;8.568;2023-04-24T07:23:36;11.81;68.74
40059;SHT31;25763;49.972;8.568;2023-04-24T07:26:02;12.18;68.67
40059;SHT31;25763;49.972;8.568;2023-04-24T07:28:27;12.25;68.00
40059;SHT31;25763;49.972;8.568;2023-04-24T07:30:56;12.43;66.96
40059;SHT31;25763;49.972;8.568;2023-04-24T07:33:22;12.73;65.02
40059;SHT31;25763;49.972;8.568;2023-04-24T07:35:47;12.40;64.74
40059;SHT31;25763;49.972;8.568;2023-04-24T07:38:13;12.43;64.95
40059;SHT31;25763;49.972;8.568;2023-04-24T07:40:38;12.73;64.88
40059;SHT31;25763;49.972;8.568;2023-04-24T07:43:03;12.87;64.72
40059;SHT31;25763;49.972;8.568;2023-04-24T07:45:29;12.63;64.53
40059;SHT31;25763;49.972;8.568;2023-04-24T07:47:56;12.38;64.73
40059;SHT31;25763;49.972;8.568;2023-04-24T07:50:22;12.59;64.55
40059;SHT31;25763;49.972;8.568;2023-04-24T07:52:47;12.71;63.58
40059;SHT31;25763;49.972;8.568;2023-04-24T07:55:12;12.74;62.92
40059;SHT31;25763;49.972;8.568;2023-04-24T07:57:38;12.94;63.23
40059;SHT31;25763;49.972;8.568;2023-04-24T08:00:04;12.98;62.01
40059;SHT31;25763;49.972;8.568;2023-04-24T08:02:31;12.77;62.69
40059;SHT31;25763;49.972;8.568;2023-04-24T08:04:56;12.55;63.32
40059;SHT31;25763;49.972;8.568;2023-04-24T08:07:22;12.32;63.88
40059;SHT31;25763;49.972;8.568;2023-04-24T08:09:48;12.24;64.01
40059;SHT31;25763;49.972;8.568;2023-04-24T08:12:13;12.87;63.06
40059;SHT31;25763;49.972;8.568;2023-04-24T08:14:39;12.98;62.31
40059;SHT31;25763;49.972;8.568;2023-04-24T08:17:04;13.46;61.66
40059;SHT31;25763;49.972;8.568;2023-04-24T08:19:30;13.36;60.82
40059;SHT31;25763;49.972;8.568;2023-04-24T08:21:55;13.89;61.17
40059;SHT31;25763;49.972;8.568;2023-04-24T08:24:21;13.33;61.16
40059;SHT31;25763;49.972;8.568;2023-04-24T08:26:47;13.83;61.41
40059;SHT31;25763;49.972;8.568;2023-04-24T08:29:15;13.83;60.42
40059;SHT31;25763;49.972;8.568;2023-04-24T08:31:41;13.95;60.60
40059;SHT31;25763;49.972;8.568;2023-04-24T08:34:06;14.00;59.61
40059;SHT31;25763;49.972;8.568;2023-04-24T08:36:32;13.36;60.08
40059;SHT31;25763;49.972;8.568;2023-04-24T08:38:57;13.08;61.00
40059;SHT31;25763;49.972;8.568;2023-04-24T08:41:23;13.06;60.66
40059;SHT31;25763;49.972;8.568;2023-04-24T08:43:51;13.29;61.05
40059;SHT31;25763;49.972;8.568;2023-04-24T08:46:18;13.64;60.36
40059;SHT31;25763;49.972;8.568;2023-04-24T08:48:43;14.03;58.98
40059;SHT31;25763;49.972;8.568;2023-04-24T08:51:09;14.09;58.88
40059;SHT31;25763;49.972;8.568;2023-04-24T08:53:35;13.47;59.67
40059;SHT31;25763;49.972;8.568;2023-04-24T08:56:02;13.16;60.75
40059;SHT31;25763;49.972;8.568;2023-04-24T08:58:28;12.82;61.13
40059;SHT31;25763;49.972;8.568;2023-04-24T09:00:57;12.74;61.45
40059;SHT31;25763;49.972;8.568;2023-04-24T09:03:24;12.53;61.96
40059;SHT31;25763;49.972;8.568;2023-04-24T09:05:51;12.45;61.10
40059;SHT31;25763;49.972;8.568;2023-04-24T09:08:19;12.20;61.86
40059;SHT31;25763;49.972;8.568;2023-04-24T09:10:44;12.32;62.63
40059;SHT31;25763;49.972;8.568;2023-04-24T09:13:10;12.26;62.24
40059;SHT31;25763;49.972;8.568;2023-04-24T09:15:36;12.50;62.70
40059;SHT31;25763;49.972;8.568;2023-04-24T09:18:01;12.60;62.21
40059;SHT31;25763;49.972;8.568;2023-04-24T09:20:27;12.70;62.22
40059;SHT31;25763;49.972;8.568;2023-04-24T09:22:59;12.73;62.20
40059;SHT31;25763;49.972;8.568;2023-04-24T09:25:32;12.84;62.07
40059;SHT31;25763;49.972;8.568;2023-04-24T09:28:00;12.64;62.45
40059;SHT31;25763;49.972;8.568;2023-04-24T09:30:27;12.68;62.48
40059;SHT31;25763;49.972;8.568;2023-04-24T09:33:13;12.57;62.73
40059;SHT31;25763;49.972;8.568;2023-04-24T09:35:49;12.42;62.65
40059;SHT31;25763;49.972;8.568;2023-04-24T09:38:15;12.64;62.99
40059;SHT31;25763;49.972;8.568;2023-04-24T09:40:40;12.71;62.53
40059;SHT31;25763;49.972;8.568;2023-04-24T09:43:10;12.77;62.58
40059;SHT31;25763;49.972;8.568;2023-04-24T09:45:37;12.60;62.49
40059;SHT31;25763;49.972;8.568;2023-04-24T09:48:03;12.60;63.01
40059;SHT31;25763;49.972;8.568;2023-04-24T09:50:32;12.52;63.57
40059;SHT31;25763;49.972;8.568;2023-04-24T09:53:05;12.67;63.79
40059;SHT31;25763;49.972;8.568;2023-04-24T09:55:32;13.20;62.34
40059;SHT31;25763;49.972;8.568;2023-04-24T09:57:59;13.26;62.29
40059;SHT31;25763;49.972;8.568;2023-04-24T10:00:32;13.30;61.95
40059;SHT31;25763;49.972;8.568;2023-04-24T10:03:02;13.53;61.74
40059;SHT31;25763;49.972;8.568;2023-04-24T10:05:33;13.50;61.28
40059;SHT31;25763;49.972;8.568;2023-04-24T10:08:09;13.15;61.98
40059;SHT31;25763;49.972;8.568;2023-04-24T10:10:45;13.27;62.17
40059;SHT31;25763;49.972;8.568;2023-04-24T10:13:12;13.27;62.22
40059;SHT31;25763;49.972;8.568;2023-04-24T10:15:39;13.06;62.42
40059;SHT31;25763;49.972;8.568;2023-04-24T10:18:05;12.95;62.64
40059;SHT31;25763;49.972;8.568;2023-04-24T10:20:32;12.87;63.44
40059;SHT31;25763;49.972;8.568;2023-04-24T10:22:59;12.65;63.51
40059;SHT31;25763;49.972;8.568;2023-04-24T10:25:33;12.73;63.62
40059;SHT31;25763;49.972;8.568;2023-04-24T10:28:00;13.01;63.26
40059;SHT31;25763;49.972;8.568;2023-04-24T10:30:30;13.30;63.63
40059;SHT31;25763;49.972;8.568;2023-04-24T10:32:56;13.91;62.48
40059;SHT31;25763;49.972;8.568;2023-04-24T10:35:22;14.38;60.64
40059;SHT31;25763;49.972;8.568;2023-04-24T10:40:19;14.08;60.43
40059;SHT31;25763;49.972;8.568;2023-04-24T10:42:51;14.20;59.39
40059;SHT31;25763;49.972;8.568;2023-04-24T10:45:20;13.86;61.16
40059;SHT31;25763;49.972;8.568;2023-04-24T10:47:56;13.22;65.74
40059;SHT31;25763;49.972;8.568;2023-04-24T10:50:21;12.91;69.75
40059;SHT31;25763;49.972;8.568;2023-04-24T10:52:48;12.39;71.01
40059;SHT31;25763;49.972;8.568;2023-04-24T10:55:15;12.25;72.94
40059;SHT31;25763;49.972;8.568;2023-04-24T10:58:04;12.46;73.46
40059;SHT31;25763;49.972;8.568;2023-04-24T11:00:29;12.45;71.99
40059;SHT31;25763;49.972;8.568;2023-04-24T11:02:55;12.68;71.72
40059;SHT31;25763;49.972;8.568;2023-04-24T11:05:21;12.36;71.37
40059;SHT31;25763;49.972;8.568;2023-04-24T11:08:13;12.30;73.40
40059;SHT31;25763;49.972;8.568;2023-04-24T11:10:40;12.15;74.96
40059;SHT31;25763;49.972;8.568;2023-04-24T11:13:06;12.22;76.22
40059;SHT31;25763;49.972;8.568;2023-04-24T11:15:31;11.95;75.75
40059;SHT31;25763;49.972;8.568;2023-04-24T11:17:57;12.15;74.69
40059;SHT31;25763;49.972;8.568;2023-04-24T11:20:23;12.49;75.39
40059;SHT31;25763;49.972;8.568;2023-04-24T11:22:52;12.99;73.41
40059;SHT31;25763;49.972;8.568;2023-04-24T11:25:18;13.40;73.43
40059;SHT31;25763;49.972;8.568;2023-04-24T11:27:44;13.33;73.43
40059;SHT31;25763;49.972;8.568;2023-04-24T11:30:11;12.80;73.68
40059;SHT31;25763;49.972;8.568;2023-04-24T11:32:38;12.68;74.38
40059;SHT31;25763;49.972;8.568;2023-04-24T11:35:13;12.43;74.56
40059;SHT31;25763;49.972;8.568;2023-04-24T11:37:41;12.22;76.01
40059;SHT31;25763;49.972;8.568;2023-04-24T11:40:09;12.14;76.43
40059;SHT31;25763;49.972;8.568;2023-04-24T11:42:40;12.11;77.56
40059;SHT31;25763;49.972;8.568;2023-04-24T11:45:17;11.49;77.79
40059;SHT31;25763;49.972;8.568;2023-04-24T11:47:44;11.53;78.21
40059;SHT31;25763;49.972;8.568;2023-04-24T11:50:21;11.74;79.07
40059;SHT31;25763;49.972;8.568;2023-04-24T11:52:48;12.11;78.41
40059;SHT31;25763;49.972;8.568;2023-04-24T11:57:39;12.40;77.23
40059;SHT31;25763;49.972;8.568;2023-04-24T12:00:14;12.95;76.65
40059;SHT31;25763;49.972;8.568;2023-04-24T12:02:39;12.98;74.80
40059;SHT31;25763;49.972;8.568;2023-04-24T12:05:05;13.59;74.22
40059;SHT31;25763;49.972;8.568;2023-04-24T12:07:40;13.68;71.82
40059;SHT31;25763;49.972;8.568;2023-04-24T12:10:08;13.95;71.19
40059;SHT31;25763;49.972;8.568;2023-04-24T12:12:34;13.85;69.77
40059;SHT31;25763;49.972;8.568;2023-04-24T12:15:02;13.74;68.62
40059;SHT31;25763;49.972;8.568;2023-04-24T12:17:32;14.21;68.90
40059;SHT31;25763;49.972;8.568;2023-04-24T12:20:04;14.52;68.58
40059;SHT31;25763;49.972;8.568;2023-04-24T12:25:17;14.33;65.21
40059;SHT31;25763;49.972;8.568;2023-04-24T12:27:43;13.24;66.75
40059;SHT31;25763;49.972;8.568;2023-04-24T12:30:18;12.73;67.46
40059;SHT31;25763;49.972;8.568;2023-04-24T12:32:46;12.36;69.25
40059;SHT31;25763;49.972;8.568;2023-04-24T12:35:12;11.98;71.26
40059;SHT31;25763;49.972;8.568;2023-04-24T12:37:37;11.86;72.31
40059;SHT31;25763;49.972;8.568;2023-04-24T12:40:11;11.48;74.32
40059;SHT31;25763;49.972;8.568;2023-04-24T12:42:45;11.46;75.16
40059;SHT31;25763;49.972;8.568;2023-04-24T12:45:11;11.35;74.79
40059;SHT31;25763;49.972;8.568;2023-04-24T12:47:38;11.35;75.54
40059;SHT31;25763;49.972;8.568;2023-04-24T12:50:04;11.28;74.81
40059;SHT31;25763;49.972;8.568;2023-04-24T12:52:30;11.38;76.21
40059;SHT31;25763;49.972;8.568;2023-04-24T12:54:58;11.63;76.46
40059;SHT31;25763;49.972;8.568;2023-04-24T12:57:24;11.76;74.80
40059;SHT31;25763;49.972;8.568;2023-04-24T12:59:51;12.15;75.03
40059;SHT31;25763;49.972;8.568;2023-04-24T13:02:17;12.15;72.54
40059;SHT31;25763;49.972;8.568;2023-04-24T13:04:49;12.67;73.82
40059;SHT31;25763;49.972;8.568;2023-04-24T13:07:15;13.78;72.96
40059;SHT31;25763;49.972;8.568;2023-04-24T13:09:41;14.42;71.69
40059;SHT31;25763;49.972;8.568;2023-04-24T13:12:07;14.55;66.22
40059;SHT31;25763;49.972;8.568;2023-04-24T13:14:33;14.77;65.90
40059;SHT31;25763;49.972;8.568;2023-04-24T13:16:59;14.90;66.44
40059;SHT31;25763;49.972;8.568;2023-04-24T13:19:25;14.68;66.13
40059;SHT31;25763;49.972;8.568;2023-04-24T13:21:55;14.62;65.17
40059;SHT31;25763;49.972;8.568;2023-04-24T13:24:21;14.80;62.80
40059;SHT31;25763;49.972;8.568;2023-04-24T13:26:50;14.42;59.12
40059;SHT31;25763;49.972;8.568;2023-04-24T13:29:15;14.34;58.87
40059;SHT31;25763;49.972;8.568;2023-04-24T13:31:40;14.52;59.14
40059;SHT31;25763;49.972;8.568;2023-04-24T13:34:06;14.57;58.35
40059;SHT31;25763;49.972;8.568;2023-04-24T13:36:31;14.33;59.06
40059;SHT31;25763;49.972;8.568;2023-04-24T13:38:56;13.91;59.29
40059;SHT31;25763;49.972;8.568;2023-04-24T13:41:22;13.46;60.10
40059;SHT31;25763;49.972;8.568;2023-04-24T13:43:47;13.23;61.84
40059;SHT31;25763;49.972;8.568;2023-04-24T13:46:12;13.12;63.72
40059;SHT31;25763;49.972;8.568;2023-04-24T13:48:38;12.85;63.63
40059;SHT31;25763;49.972;8.568;2023-04-24T13:51:03;12.56;63.21
40059;SHT31;25763;49.972;8.568;2023-04-24T13:53:29;12.50;64.44
40059;SHT31;25763;49.972;8.568;2023-04-24T13:55:54;12.59;63.15
40059;SHT31;25763;49.972;8.568;2023-04-24T13:58:20;12.63;61.40
40059;SHT31;25763;49.972;8.568;2023-04-24T14:00:45;12.87;61.32
40059;SHT31;25763;49.972;8.568;2023-04-24T14:03:11;13.33;60.98
40059;SHT31;25763;49.972;8.568;2023-04-24T14:05:36;13.86;60.22
40059;SHT31;25763;49.972;8.568;2023-04-24T14:08:02;14.09;58.29
40059;SHT31;25763;49.972;8.568;2023-04-24T14:10:27;14.26;58.26
40059;SHT31;25763;49.972;8.568;2023-04-24T14:12:53;14.73;57.27
40059;SHT31;25763;49.972;8.568;2023-04-24T14:15:19;14.86;58.28
40059;SHT31;25763;49.972;8.568;2023-04-24T14:17:44;14.37;58.09
40059;SHT31;25763;49.972;8.568;2023-04-24T14:20:10;14.17;59.21
40059;SHT31;25763;49.972;8.568;2023-04-24T14:22:35;14.38;59.26
40059;SHT31;25763;49.972;8.568;2023-04-24T14:25:01;14.42;58.30
40059;SHT31;25763;49.972;8.568;2023-04-24T14:27:26;14.24;57.03
40059;SHT31;25763;49.972;8.568;2023-04-24T14:29:52;14.14;56.59
40059;SHT31;25763;49.972;8.568;2023-04-24T14:32:17;14.17;56.32
40059;SHT31;25763;49.972;8.568;2023-04-24T14:34:43;13.81;55.15
40059;SHT31;25763;49.972;8.568;2023-04-24T14:37:08;13.82;55.11
40059;SHT31;25763;49.972;8.568;2023-04-24T14:39:34;13.86;54.97
40059;SHT31;25763;49.972;8.568;2023-04-24T14:42:00;13.81;55.04
40059;SHT31;25763;49.972;8.568;2023-04-24T14:44:26;13.82;56.54
40059;SHT31;25763;49.972;8.568;2023-04-24T14:46:52;13.93;56.08
40059;SHT31;25763;49.972;8.568;2023-04-24T14:49:18;13.91;55.71
40059;SHT31;25763;49.972;8.568;2023-04-24T14:51:43;13.95;56.22
40059;SHT31;25763;49.972;8.568;2023-04-24T14:54:08;13.91;56.35
40059;SHT31;25763;49.972;8.568;2023-04-24T14:56:34;13.79;55.88
40059;SHT31;25763;49.972;8.568;2023-04-24T14:59:00;13.86;55.52
40059;SHT31;25763;49.972;8.568;2023-04-24T15:01:25;13.91;56.17
40059;SHT31;25763;49.972;8.568;2023-04-24T15:03:51;13.93;56.03
40059;SHT31;25763;49.972;8.568;2023-04-24T15:06:16;13.81;57.05
40059;SHT31;25763;49.972;8.568;2023-04-24T15:08:41;13.99;58.26
40059;SHT31;25763;49.972;8.568;2023-04-24T15:11:07;14.00;57.14
40059;SHT31;25763;49.972;8.568;2023-04-24T15:13:33;13.86;57.43
40059;SHT31;25763;49.972;8.568;2023-04-24T15:15:59;14.12;57.75
40059;SHT31;25763;49.972;8.568;2023-04-24T15:18:24;14.21;56.51
40059;SHT31;25763;49.972;8.568;2023-04-24T15:20:50;14.28;56.41
40059;SHT31;25763;49.972;8.568;2023-04-24T15:23:15;14.82;56.45
40059;SHT31;25763;49.972;8.568;2023-04-24T15:25:40;14.90;55.22
40059;SHT31;25763;49.972;8.568;2023-04-24T15:28:06;15.37;54.84
40059;SHT31;25763;49.972;8.568;2023-04-24T15:30:31;15.38;54.61
40059;SHT31;25763;49.972;8.568;2023-04-24T15:32:57;15.32;55.68